createdAt,value
2023-02-02T00:00:22.227Z,1011.51
2023-02-02T00:01:22.194Z,1011.54
2023-02-02T00:02:22.202Z,1011.51
2023-02-02T00:03:22.173Z,1011.53
2023-02-02T00:04:22.180Z,1011.56
2023-02-02T00:05:22.540Z,1011.53
2023-02-02T00:06:22.173Z,1011.54
2023-02-02T00:07:22.130Z,1011.53
2023-02-02T00:08:22.127Z,1011.50
2023-02-02T00:09:22.111Z,1011.52
2023-02-02T00:10:22.128Z,1011.53
2023-02-02T00:11:22.118Z,1011.49
2023-02-02T00:12:22.084Z,1011.49
2023-02-02T00:13:22.090Z,1011.47
2023-02-02T00:14:22.092Z,1011.45
2023-02-02T00:15:22.238Z,1011.47
2023-02-02T00:16:22.097Z,1011.44
2023-02-02T00:17:22.058Z,1011.43
2023-02-02T00:18:22.040Z,1011.44
2023-02-02T00:19:22.023Z,1011.46
2023-02-02T00:20:22.007Z,1011.47
2023-02-02T00:21:22.018Z,1011.48
2023-02-02T00:22:21.998Z,1011.50
2023-02-02T00:23:21.973Z,1011.51
2023-02-02T00:24:21.969Z,1011.48
2023-02-02T00:25:22.240Z,1011.50
2023-02-02T00:26:22.006Z,1011.51
2023-02-02T00:27:21.959Z,1011.50
2023-02-02T00:28:21.916Z,1011.51
2023-02-02T00:29:21.961Z,1011.51
2023-02-02T00:30:21.923Z,1011.55
2023-02-02T00:31:21.891Z,1011.52
2023-02-02T00:32:21.912Z,1011.53
2023-02-02T00:33:21.864Z,1011.58
2023-02-02T00:34:21.959Z,1011.54
2023-02-02T00:35:21.993Z,1011.51
2023-02-02T00:36:21.881Z,1011.52
2023-02-02T00:37:21.875Z,1011.53
2023-02-02T00:38:21.849Z,1011.54
2023-02-02T00:39:21.854Z,1011.54
2023-02-02T00:40:21.804Z,1011.55
2023-02-02T00:41:21.791Z,1011.52
2023-02-02T00:42:21.795Z,1011.52
2023-02-02T00:43:21.805Z,1011.51
2023-02-02T00:44:21.764Z,1011.49
2023-02-02T00:45:22.128Z,1011.51
2023-02-02T00:46:21.759Z,1011.49
2023-02-02T00:47:21.729Z,1011.47
2023-02-02T00:48:21.752Z,1011.45
2023-02-02T00:49:21.751Z,1011.45
2023-02-02T00:50:21.722Z,1011.44
2023-02-02T00:51:21.687Z,1011.44
2023-02-02T00:52:21.677Z,1011.46
2023-02-02T00:53:21.700Z,1011.47
2023-02-02T00:54:21.676Z,1011.52
2023-02-02T00:55:21.771Z,1011.48
2023-02-02T00:56:21.671Z,1011.52
2023-02-02T00:57:21.656Z,1011.50
2023-02-02T00:58:21.644Z,1011.51
2023-02-02T00:59:21.620Z,1011.50
2023-02-02T01:00:21.654Z,1011.50
2023-02-02T01:01:21.687Z,1011.52
2023-02-02T01:02:21.720Z,1011.50
2023-02-02T01:03:21.580Z,1011.50
2023-02-02T01:04:21.573Z,1011.52
2023-02-02T01:05:21.826Z,1011.51
2023-02-02T01:06:21.559Z,1011.52
2023-02-02T01:07:21.536Z,1011.59
2023-02-02T01:08:21.521Z,1011.57
2023-02-02T01:09:21.518Z,1011.57
2023-02-02T01:10:21.529Z,1011.62
2023-02-02T01:11:21.501Z,1011.59
2023-02-02T01:12:21.512Z,1011.60
2023-02-02T01:13:21.466Z,1011.63
2023-02-02T01:14:21.510Z,1011.62
2023-02-02T01:15:21.646Z,1011.61
2023-02-02T01:16:21.474Z,1011.65
2023-02-02T01:17:21.432Z,1011.71
2023-02-02T01:18:21.424Z,1011.69
2023-02-02T01:19:21.408Z,1011.68
2023-02-02T01:20:21.401Z,1011.67
2023-02-02T01:21:21.420Z,1011.66
2023-02-02T01:22:21.401Z,1011.65
2023-02-02T01:23:21.364Z,1011.65
2023-02-02T01:24:21.381Z,1011.64
2023-02-02T01:25:21.376Z,1011.67
2023-02-02T01:26:21.391Z,1011.68
2023-02-02T01:27:21.380Z,1011.66
2023-02-02T01:28:21.319Z,1011.70
2023-02-02T01:29:21.410Z,1011.69
2023-02-02T01:30:21.301Z,1011.73
2023-02-02T01:31:21.368Z,1011.70
2023-02-02T01:32:21.293Z,1011.72
2023-02-02T01:33:21.262Z,1011.78
2023-02-02T01:34:21.276Z,1011.77
2023-02-02T01:35:21.418Z,1011.78
2023-02-02T01:36:21.273Z,1011.78
2023-02-02T01:37:21.236Z,1011.78
2023-02-02T01:38:21.244Z,1011.81
2023-02-02T01:39:21.216Z,1011.80
2023-02-02T01:40:21.219Z,1011.83
2023-02-02T01:41:21.226Z,1011.82
2023-02-02T01:42:21.204Z,1011.82
2023-02-02T01:43:21.169Z,1011.77
2023-02-02T01:44:21.167Z,1011.76
2023-02-02T01:45:21.172Z,1011.78
2023-02-02T01:46:21.156Z,1011.79
2023-02-02T01:47:21.131Z,1011.77
2023-02-02T01:48:21.147Z,1011.78
2023-02-02T01:49:21.133Z,1011.80
2023-02-02T01:50:21.108Z,1011.82
2023-02-02T01:51:21.098Z,1011.81
2023-02-02T01:52:21.103Z,1011.80
2023-02-02T01:53:21.114Z,1011.82
2023-02-02T01:54:21.105Z,1011.80
2023-02-02T01:55:21.047Z,1011.81
2023-02-02T01:56:21.093Z,1011.82
2023-02-02T01:57:21.040Z,1011.79
2023-02-02T01:58:21.073Z,1011.80
2023-02-02T01:59:21.005Z,1011.79
2023-02-02T02:00:21.010Z,1011.78
2023-02-02T02:01:21.025Z,1011.78
2023-02-02T02:02:21.064Z,1011.79
2023-02-02T02:03:20.998Z,1011.76
2023-02-02T02:04:20.971Z,1011.78
2023-02-02T02:05:20.955Z,1011.79
2023-02-02T02:06:21.045Z,1011.79
2023-02-02T02:07:20.929Z,1011.78
2023-02-02T02:08:20.951Z,1011.78
2023-02-02T02:09:20.912Z,1011.78
2023-02-02T02:10:20.923Z,1011.78
2023-02-02T02:11:20.895Z,1011.78
2023-02-02T02:12:20.913Z,1011.81
2023-02-02T02:13:20.895Z,1011.80
2023-02-02T02:14:20.910Z,1011.79
2023-02-02T02:15:20.876Z,1011.80
2023-02-02T02:16:20.926Z,1011.81
2023-02-02T02:17:20.838Z,1011.81
2023-02-02T02:18:20.828Z,1011.81
2023-02-02T02:19:20.840Z,1011.80
2023-02-02T02:20:20.815Z,1011.81
2023-02-02T02:21:20.803Z,1011.79
2023-02-02T02:22:20.870Z,1011.79
2023-02-02T02:23:20.834Z,1011.79
2023-02-02T02:24:20.806Z,1011.79
2023-02-02T02:25:20.762Z,1011.80
2023-02-02T02:26:20.802Z,1011.77
2023-02-02T02:27:21.314Z,1011.80
2023-02-02T02:28:20.755Z,1011.81
2023-02-02T02:29:20.712Z,1011.81
2023-02-02T02:30:20.727Z,1011.82
2023-02-02T02:31:20.793Z,1011.80
2023-02-02T02:32:20.686Z,1011.78
2023-02-02T02:33:20.676Z,1011.76
2023-02-02T02:34:20.665Z,1011.77
2023-02-02T02:35:20.672Z,1011.79
2023-02-02T02:36:20.664Z,1011.77
2023-02-02T02:37:20.643Z,1011.75
2023-02-02T02:38:20.628Z,1011.80
2023-02-02T02:39:20.621Z,1011.78
2023-02-02T02:40:20.623Z,1011.82
2023-02-02T02:41:20.601Z,1011.79
2023-02-02T02:42:20.591Z,1011.80
2023-02-02T02:43:20.574Z,1011.81
2023-02-02T02:44:20.568Z,1011.80
2023-02-02T02:45:20.612Z,1011.79
2023-02-02T02:46:20.622Z,1011.79
2023-02-02T02:47:20.555Z,1011.78
2023-02-02T02:48:20.526Z,1011.81
2023-02-02T02:49:20.535Z,1011.81
2023-02-02T02:50:20.547Z,1011.81
2023-02-02T02:51:20.501Z,1011.78
2023-02-02T02:52:20.510Z,1011.77
2023-02-02T02:53:20.474Z,1011.75
2023-02-02T02:54:20.475Z,1011.78
2023-02-02T02:55:20.495Z,1011.77
2023-02-02T02:56:20.463Z,1011.74
2023-02-02T02:57:20.448Z,1011.76
2023-02-02T02:58:20.438Z,1011.76
2023-02-02T02:59:20.441Z,1011.75
2023-02-02T03:00:20.408Z,1011.76
2023-02-02T03:01:20.460Z,1011.75
2023-02-02T03:02:20.428Z,1011.76
2023-02-02T03:03:20.383Z,1011.77
2023-02-02T03:04:20.373Z,1011.79
2023-02-02T03:05:20.353Z,1011.82
2023-02-02T03:06:20.340Z,1011.79
2023-02-02T03:07:20.353Z,1011.77
2023-02-02T03:08:20.339Z,1011.78
2023-02-02T03:09:20.349Z,1011.80
2023-02-02T03:10:20.328Z,1011.79
2023-02-02T03:11:20.298Z,1011.78
2023-02-02T03:12:20.342Z,1011.77
2023-02-02T03:13:20.280Z,1011.74
2023-02-02T03:14:20.288Z,1011.70
2023-02-02T03:15:20.252Z,1011.71
2023-02-02T03:16:20.273Z,1011.73
2023-02-02T03:17:20.294Z,1011.71
2023-02-02T03:18:20.242Z,1011.67
2023-02-02T03:19:20.231Z,1011.67
2023-02-02T03:20:20.204Z,1011.68
2023-02-02T03:21:20.194Z,1011.63
2023-02-02T03:22:20.203Z,1011.66
2023-02-02T03:23:20.180Z,1011.66
2023-02-02T03:24:20.171Z,1011.66
2023-02-02T03:25:20.221Z,1011.65
2023-02-02T03:26:20.180Z,1011.69
2023-02-02T03:27:20.151Z,1011.67
2023-02-02T03:28:20.159Z,1011.72
2023-02-02T03:29:20.144Z,1011.73
2023-02-02T03:30:20.189Z,1011.73
2023-02-02T03:31:20.168Z,1011.71
2023-02-02T03:32:20.121Z,1011.73
2023-02-02T03:33:20.137Z,1011.72
2023-02-02T03:34:20.072Z,1011.74
2023-02-02T03:35:20.072Z,1011.77
2023-02-02T03:36:20.091Z,1011.74
2023-02-02T03:37:20.079Z,1011.72
2023-02-02T03:38:20.059Z,1011.72
2023-02-02T03:39:20.012Z,1011.70
2023-02-02T03:40:20.043Z,1011.69
2023-02-02T03:41:20.032Z,1011.69
2023-02-02T03:42:20.005Z,1011.69
2023-02-02T03:43:19.989Z,1011.73
2023-02-02T03:44:19.967Z,1011.68
2023-02-02T03:45:19.974Z,1011.72
2023-02-02T03:46:20.034Z,1011.72
2023-02-02T03:47:19.942Z,1011.70
2023-02-02T03:48:19.928Z,1011.72
2023-02-02T03:49:19.948Z,1011.67
2023-02-02T03:50:19.942Z,1011.70
2023-02-02T03:51:19.913Z,1011.73
2023-02-02T03:52:19.894Z,1011.75
2023-02-02T03:53:19.877Z,1011.80
2023-02-02T03:54:19.869Z,1011.83
2023-02-02T03:55:19.888Z,1011.80
2023-02-02T03:56:19.863Z,1011.82
2023-02-02T03:57:19.831Z,1011.85
2023-02-02T03:58:19.832Z,1011.86
2023-02-02T03:59:19.817Z,1011.86
2023-02-02T04:00:19.886Z,1011.86
2023-02-02T04:01:19.880Z,1011.86
2023-02-02T04:02:19.784Z,1011.86
2023-02-02T04:03:19.788Z,1011.89
2023-02-02T04:04:19.789Z,1011.88
2023-02-02T04:05:19.776Z,1011.91
2023-02-02T04:06:19.755Z,1011.90
2023-02-02T04:07:19.761Z,1011.89
2023-02-02T04:08:19.719Z,1011.87
2023-02-02T04:09:19.723Z,1011.88
2023-02-02T04:10:19.712Z,1011.86
2023-02-02T04:11:19.706Z,1011.87
2023-02-02T04:12:19.711Z,1011.87
2023-02-02T04:13:19.691Z,1011.86
2023-02-02T04:14:19.682Z,1011.87
2023-02-02T04:15:19.663Z,1011.92
2023-02-02T04:16:19.703Z,1011.93
2023-02-02T04:17:19.655Z,1011.93
2023-02-02T04:18:19.648Z,1011.96
2023-02-02T04:19:19.628Z,1011.96
2023-02-02T04:20:19.647Z,1011.96
2023-02-02T04:21:19.625Z,1011.97
2023-02-02T04:22:19.670Z,1011.99
2023-02-02T04:23:19.610Z,1011.98
2023-02-02T04:24:19.583Z,1011.97
2023-02-02T04:25:19.572Z,1011.98
2023-02-02T04:26:19.587Z,1011.97
2023-02-02T04:27:19.573Z,1011.97
2023-02-02T04:28:19.546Z,1011.96
2023-02-02T04:29:19.575Z,1011.96
2023-02-02T04:30:19.512Z,1011.97
2023-02-02T04:31:19.622Z,1011.96
2023-02-02T04:32:19.502Z,1011.99
2023-02-02T04:33:19.519Z,1012.02
2023-02-02T04:34:19.496Z,1012.04
2023-02-02T04:35:19.537Z,1012.05
2023-02-02T04:36:19.451Z,1012.04
2023-02-02T04:37:19.455Z,1012.06
2023-02-02T04:38:19.433Z,1012.08
2023-02-02T04:39:19.451Z,1012.07
2023-02-02T04:40:19.419Z,1012.09
2023-02-02T04:41:19.468Z,1012.09
2023-02-02T04:42:19.391Z,1012.13
2023-02-02T04:43:19.391Z,1012.13
2023-02-02T04:44:19.393Z,1012.14
2023-02-02T04:45:19.364Z,1012.15
2023-02-02T04:46:19.387Z,1012.20
2023-02-02T04:47:19.343Z,1012.19
2023-02-02T04:48:19.344Z,1012.20
2023-02-02T04:49:19.331Z,1012.23
2023-02-02T04:50:19.335Z,1012.23
2023-02-02T04:51:19.320Z,1012.23
2023-02-02T04:52:19.300Z,1012.23
2023-02-02T04:53:19.319Z,1012.26
2023-02-02T04:54:19.273Z,1012.26
2023-02-02T04:55:19.281Z,1012.27
2023-02-02T04:56:19.270Z,1012.28
2023-02-02T04:57:19.272Z,1012.27
2023-02-02T04:58:19.227Z,1012.26
2023-02-02T04:59:19.234Z,1012.26
2023-02-02T05:00:19.233Z,1012.27
2023-02-02T05:01:19.281Z,1012.25
2023-02-02T05:02:19.220Z,1012.23
2023-02-02T05:03:19.200Z,1012.23
2023-02-02T05:04:19.227Z,1012.24
2023-02-02T05:05:19.213Z,1012.25
2023-02-02T05:06:19.185Z,1012.24
2023-02-02T05:07:19.168Z,1012.26
2023-02-02T05:08:19.159Z,1012.28
2023-02-02T05:09:19.122Z,1012.29
2023-02-02T05:10:19.145Z,1012.32
2023-02-02T05:11:19.110Z,1012.33
2023-02-02T05:12:19.147Z,1012.33
2023-02-02T05:13:19.085Z,1012.36
2023-02-02T05:14:19.078Z,1012.37
2023-02-02T05:15:19.092Z,1012.34
2023-02-02T05:16:19.140Z,1012.36
2023-02-02T05:17:19.109Z,1012.41
2023-02-02T05:18:19.029Z,1012.41
2023-02-02T05:19:19.031Z,1012.38
2023-02-02T05:20:19.035Z,1012.37
2023-02-02T05:21:19.019Z,1012.37
2023-02-02T05:22:19.021Z,1012.40
2023-02-02T05:23:18.993Z,1012.42
2023-02-02T05:24:18.985Z,1012.45
2023-02-02T05:25:18.979Z,1012.45
2023-02-02T05:26:19.077Z,1012.44
2023-02-02T05:27:18.957Z,1012.43
2023-02-02T05:28:18.939Z,1012.47
2023-02-02T05:29:18.957Z,1012.48
2023-02-02T05:30:18.959Z,1012.50
2023-02-02T05:31:19.049Z,1012.51
2023-02-02T05:32:18.910Z,1012.49
2023-02-02T05:33:18.903Z,1012.51
2023-02-02T05:34:18.906Z,1012.52
2023-02-02T05:35:18.881Z,1012.49
2023-02-02T05:36:18.864Z,1012.48
2023-02-02T05:37:18.930Z,1012.53
2023-02-02T05:38:18.870Z,1012.51
2023-02-02T05:39:18.831Z,1012.50
2023-02-02T05:40:18.825Z,1012.49
2023-02-02T05:41:18.768Z,1012.54
2023-02-02T05:42:18.820Z,1012.49
2023-02-02T05:43:21.317Z,1012.53
2023-02-02T05:44:18.779Z,1012.51
2023-02-02T05:45:18.766Z,1012.53
2023-02-02T05:46:18.783Z,1012.59
2023-02-02T05:47:18.802Z,1012.59
2023-02-02T05:48:18.747Z,1012.63
2023-02-02T05:49:18.788Z,1012.64
2023-02-02T05:50:18.731Z,1012.64
2023-02-02T05:51:18.768Z,1012.66
2023-02-02T05:52:18.693Z,1012.66
2023-02-02T05:53:18.753Z,1012.66
2023-02-02T05:54:18.676Z,1012.69
2023-02-02T05:55:18.684Z,1012.68
2023-02-02T05:56:18.671Z,1012.67
2023-02-02T05:57:18.649Z,1012.71
2023-02-02T05:58:18.583Z,1012.70
2023-02-02T05:59:18.692Z,1012.70
2023-02-02T06:00:18.620Z,1012.69
2023-02-02T06:01:18.633Z,1012.71
2023-02-02T06:02:18.635Z,1012.70
2023-02-02T06:03:18.650Z,1012.67
2023-02-02T06:04:18.653Z,1012.66
2023-02-02T06:05:18.601Z,1012.65
2023-02-02T06:06:18.573Z,1012.68
2023-02-02T06:07:18.541Z,1012.71
2023-02-02T06:08:18.550Z,1012.72
2023-02-02T06:09:18.504Z,1012.69
2023-02-02T06:10:18.523Z,1012.67
2023-02-02T06:11:18.510Z,1012.65
2023-02-02T06:12:18.472Z,1012.68
2023-02-02T06:13:18.529Z,1012.68
2023-02-02T06:14:18.471Z,1012.69
2023-02-02T06:15:18.516Z,1012.69
2023-02-02T06:16:18.537Z,1012.67
2023-02-02T06:17:18.533Z,1012.72
2023-02-02T06:18:18.406Z,1012.72
2023-02-02T06:19:18.423Z,1012.77
2023-02-02T06:20:20.319Z,1012.78
2023-02-02T06:21:18.398Z,1012.79
2023-02-02T06:22:18.402Z,1012.80
2023-02-02T06:23:18.418Z,1012.81
2023-02-02T06:24:18.373Z,1012.83
2023-02-02T06:25:18.393Z,1012.81
2023-02-02T06:26:18.410Z,1012.79
2023-02-02T06:27:18.403Z,1012.81
2023-02-02T06:28:18.338Z,1012.85
2023-02-02T06:29:18.286Z,1012.83
2023-02-02T06:30:18.351Z,1012.79
2023-02-02T06:31:18.484Z,1012.77
2023-02-02T06:32:18.419Z,1012.76
2023-02-02T06:33:18.304Z,1012.74
2023-02-02T06:34:18.250Z,1012.75
2023-02-02T06:35:18.233Z,1012.74
2023-02-02T06:36:18.325Z,1012.70
2023-02-02T06:37:18.317Z,1012.71
2023-02-02T06:38:18.195Z,1012.71
2023-02-02T06:39:18.181Z,1012.71
2023-02-02T06:40:18.246Z,1012.69
2023-02-02T06:41:18.169Z,1012.73
2023-02-02T06:42:21.642Z,1012.71
2023-02-02T06:43:18.154Z,1012.67
2023-02-02T06:44:18.142Z,1012.72
2023-02-02T06:45:18.159Z,1012.70
2023-02-02T06:46:18.174Z,1012.69
2023-02-02T06:47:18.102Z,1012.71
2023-02-02T06:48:18.124Z,1012.66
2023-02-02T06:49:18.184Z,1012.71
2023-02-02T06:50:18.090Z,1012.69
2023-02-02T06:51:18.105Z,1012.70
2023-02-02T06:52:18.069Z,1012.75
2023-02-02T06:53:18.056Z,1012.74
2023-02-02T06:54:18.057Z,1012.74
2023-02-02T06:55:18.055Z,1012.79
2023-02-02T06:56:18.051Z,1012.72
2023-02-02T06:57:18.000Z,1012.73
2023-02-02T06:58:18.000Z,1012.78
2023-02-02T06:59:17.996Z,1012.71
2023-02-02T07:00:19.727Z,1012.71
2023-02-02T07:01:18.055Z,1012.74
2023-02-02T07:02:18.048Z,1012.73
2023-02-02T07:03:17.947Z,1012.75
2023-02-02T07:04:17.933Z,1012.74
2023-02-02T07:05:17.930Z,1012.78
2023-02-02T07:06:17.908Z,1012.79
2023-02-02T07:07:17.937Z,1012.76
2023-02-02T07:08:17.890Z,1012.80
2023-02-02T07:09:17.908Z,1012.75
2023-02-02T07:11:14.737Z,1012.82
2023-02-02T07:11:20.314Z,1012.83
2023-02-02T07:12:17.871Z,1012.84
2023-02-02T07:13:17.867Z,1012.84
2023-02-02T07:14:17.839Z,1012.80
2023-02-02T07:15:18.059Z,1012.80
2023-02-02T07:16:17.841Z,1012.81
2023-02-02T07:17:17.824Z,1012.80
2023-02-02T07:18:17.808Z,1012.79
2023-02-02T07:19:17.826Z,1012.81
2023-02-02T07:20:17.793Z,1012.82
2023-02-02T07:21:17.764Z,1012.82
2023-02-02T07:22:17.755Z,1012.84
2023-02-02T07:23:17.749Z,1012.86
2023-02-02T07:24:17.793Z,1012.86
2023-02-02T07:25:17.790Z,1012.85
2023-02-02T07:26:17.773Z,1012.86
2023-02-02T07:27:17.714Z,1012.86
2023-02-02T07:28:17.694Z,1012.86
2023-02-02T07:29:17.741Z,1012.86
2023-02-02T07:30:17.673Z,1012.87
2023-02-02T07:31:17.714Z,1012.87
2023-02-02T07:32:17.680Z,1012.92
2023-02-02T07:33:17.685Z,1012.90
2023-02-02T07:34:17.630Z,1012.97
2023-02-02T07:35:17.633Z,1012.97
2023-02-02T07:36:17.655Z,1012.96
2023-02-02T07:37:17.657Z,1012.96
2023-02-02T07:38:17.613Z,1013.02
2023-02-02T07:39:17.601Z,1013.01
2023-02-02T07:40:17.607Z,1013.06
2023-02-02T07:41:17.599Z,1013.07
2023-02-02T07:42:17.625Z,1013.11
2023-02-02T07:43:17.581Z,1013.10
2023-02-02T07:44:17.593Z,1013.08
2023-02-02T07:45:27.047Z,1013.10
2023-02-02T07:46:17.638Z,1013.11
2023-02-02T07:47:17.556Z,1013.14
2023-02-02T07:48:17.528Z,1013.16
2023-02-02T07:49:17.562Z,1013.13
2023-02-02T07:50:17.519Z,1013.14
2023-02-02T07:51:17.502Z,1013.16
2023-02-02T07:52:17.514Z,1013.23
2023-02-02T07:53:17.452Z,1013.17
2023-02-02T07:54:17.473Z,1013.20
2023-02-02T07:55:17.441Z,1013.16
2023-02-02T07:56:17.482Z,1013.19
2023-02-02T07:57:17.436Z,1013.19
2023-02-02T07:58:17.414Z,1013.18
2023-02-02T07:59:17.415Z,1013.18
2023-02-02T08:00:17.485Z,1013.17
2023-02-02T08:01:17.411Z,1013.13
2023-02-02T08:02:17.399Z,1013.09
2023-02-02T08:03:17.459Z,1013.12
2023-02-02T08:04:17.379Z,1013.06
2023-02-02T08:05:17.350Z,1013.08
2023-02-02T08:06:17.833Z,1013.13
2023-02-02T08:07:17.361Z,1013.14
2023-02-02T08:08:17.304Z,1013.14
2023-02-02T08:09:17.306Z,1013.18
2023-02-02T08:10:17.321Z,1013.15
2023-02-02T08:11:17.323Z,1013.18
2023-02-02T08:12:17.277Z,1013.17
2023-02-02T08:13:17.265Z,1013.20
2023-02-02T08:14:17.267Z,1013.18
2023-02-02T08:15:17.248Z,1013.16
2023-02-02T08:16:17.300Z,1013.21
2023-02-02T08:17:17.223Z,1013.20
2023-02-02T08:18:17.226Z,1013.21
2023-02-02T08:19:17.253Z,1013.23
2023-02-02T08:20:17.205Z,1013.24
2023-02-02T08:21:17.269Z,1013.33
2023-02-02T08:22:19.414Z,1013.29
2023-02-02T08:23:17.168Z,1013.28
2023-02-02T08:24:17.160Z,1013.30
2023-02-02T08:25:17.163Z,1013.30
2023-02-02T08:26:17.282Z,1013.32
2023-02-02T08:27:17.116Z,1013.29
2023-02-02T08:28:17.125Z,1013.36
2023-02-02T08:29:17.166Z,1013.35
2023-02-02T08:30:17.092Z,1013.36
2023-02-02T08:31:17.163Z,1013.32
2023-02-02T08:32:17.076Z,1013.32
2023-02-02T08:33:17.070Z,1013.32
2023-02-02T08:34:17.070Z,1013.35
2023-02-02T08:35:17.053Z,1013.32
2023-02-02T08:36:17.035Z,1013.30
2023-02-02T08:37:17.044Z,1013.36
2023-02-02T08:38:17.017Z,1013.36
2023-02-02T08:39:17.053Z,1013.38
2023-02-02T08:40:17.067Z,1013.39
2023-02-02T08:41:17.005Z,1013.39
2023-02-02T08:42:16.999Z,1013.39
2023-02-02T08:43:16.979Z,1013.35
2023-02-02T08:44:17.001Z,1013.41
2023-02-02T08:46:07.739Z,1013.41
2023-02-02T08:46:17.479Z,1013.37
2023-02-02T08:47:16.923Z,1013.39
2023-02-02T08:48:16.971Z,1013.38
2023-02-02T08:49:16.907Z,1013.36
2023-02-02T08:50:16.900Z,1013.42
2023-02-02T08:51:16.901Z,1013.42
2023-02-02T08:52:16.937Z,1013.41
2023-02-02T08:53:16.920Z,1013.38
2023-02-02T08:54:16.853Z,1013.44
2023-02-02T08:55:16.854Z,1013.39
2023-02-02T08:56:16.864Z,1013.38
2023-02-02T08:57:16.880Z,1013.37
2023-02-02T08:58:16.828Z,1013.39
2023-02-02T08:59:16.835Z,1013.40
2023-02-02T09:00:16.804Z,1013.39
2023-02-02T09:01:16.824Z,1013.35
2023-02-02T09:02:16.843Z,1013.32
2023-02-02T09:03:16.799Z,1013.38
2023-02-02T09:04:16.782Z,1013.35
2023-02-02T09:05:16.767Z,1013.39
2023-02-02T09:06:16.753Z,1013.38
2023-02-02T09:07:16.747Z,1013.33
2023-02-02T09:08:16.793Z,1013.36
2023-02-02T09:09:16.756Z,1013.39
2023-02-02T09:10:16.716Z,1013.41
2023-02-02T09:11:16.731Z,1013.50
2023-02-02T09:12:16.716Z,1013.46
2023-02-02T09:13:16.699Z,1013.48
2023-02-02T09:14:16.684Z,1013.47
2023-02-02T09:15:16.679Z,1013.46
2023-02-02T09:16:16.692Z,1013.46
2023-02-02T09:17:16.652Z,1013.43
2023-02-02T09:18:16.679Z,1013.46
2023-02-02T09:19:16.605Z,1013.41
2023-02-02T09:20:16.612Z,1013.42
2023-02-02T09:21:16.599Z,1013.43
2023-02-02T09:22:16.625Z,1013.44
2023-02-02T09:23:16.568Z,1013.43
2023-02-02T09:24:16.607Z,1013.48
2023-02-02T09:25:16.585Z,1013.47
2023-02-02T09:26:16.602Z,1013.52
2023-02-02T09:27:16.564Z,1013.53
2023-02-02T09:28:16.590Z,1013.56
2023-02-02T09:29:16.680Z,1013.60
2023-02-02T09:30:16.590Z,1013.63
2023-02-02T09:31:16.525Z,1013.63
2023-02-02T09:32:16.502Z,1013.62
2023-02-02T09:33:16.580Z,1013.68
2023-02-02T09:34:16.496Z,1013.69
2023-02-02T09:35:16.478Z,1013.71
2023-02-02T09:36:16.465Z,1013.75
2023-02-02T09:37:16.489Z,1013.77
2023-02-02T09:38:16.439Z,1013.78
2023-02-02T09:39:16.449Z,1013.80
2023-02-02T09:40:16.419Z,1013.76
2023-02-02T09:41:16.423Z,1013.74
2023-02-02T09:42:16.445Z,1013.72
2023-02-02T09:43:16.373Z,1013.71
2023-02-02T09:44:16.386Z,1013.77
2023-02-02T09:45:16.375Z,1013.82
2023-02-02T09:46:16.404Z,1013.78
2023-02-02T09:47:16.396Z,1013.84
2023-02-02T09:48:16.393Z,1013.81
2023-02-02T09:49:16.319Z,1013.80
2023-02-02T09:50:16.357Z,1013.82
2023-02-02T09:51:16.383Z,1013.90
2023-02-02T09:52:16.319Z,1013.83
2023-02-02T09:53:16.280Z,1013.87
2023-02-02T09:54:16.316Z,1013.92
2023-02-02T09:55:16.291Z,1014.05
2023-02-02T09:56:16.302Z,1013.92
2023-02-02T09:57:16.244Z,1013.97
2023-02-02T09:58:16.265Z,1014.00
2023-02-02T09:59:20.504Z,1014.00
2023-02-02T10:00:16.268Z,1014.04
2023-02-02T10:01:16.439Z,1014.04
2023-02-02T10:02:16.214Z,1014.08
2023-02-02T10:03:16.196Z,1014.11
2023-02-02T10:04:17.172Z,1014.12
2023-02-02T10:05:16.177Z,1014.15
2023-02-02T10:06:16.929Z,1014.13
2023-02-02T10:07:16.552Z,1014.15
2023-02-02T10:08:20.549Z,1014.21
2023-02-02T10:09:16.265Z,1014.22
2023-02-02T10:10:17.180Z,1014.25
2023-02-02T10:11:16.113Z,1014.21
2023-02-02T10:12:16.126Z,1014.29
2023-02-02T10:13:16.087Z,1014.25
2023-02-02T10:14:16.142Z,1014.26
2023-02-02T10:15:16.116Z,1014.25
2023-02-02T10:16:16.107Z,1014.30
2023-02-02T10:17:16.045Z,1014.33
2023-02-02T10:18:16.058Z,1014.31
2023-02-02T10:19:16.069Z,1014.38
2023-02-02T10:20:16.034Z,1014.34
2023-02-02T10:21:15.999Z,1014.39
2023-02-02T10:22:16.013Z,1014.46
2023-02-02T10:23:16.086Z,1014.42
2023-02-02T10:24:16.089Z,1014.39
2023-02-02T10:25:15.971Z,1014.42
2023-02-02T10:26:15.997Z,1014.41
2023-02-02T10:27:16.220Z,1014.39
2023-02-02T10:28:15.946Z,1014.41
2023-02-02T10:29:15.929Z,1014.42
2023-02-02T10:30:15.989Z,1014.40
2023-02-02T10:31:16.102Z,1014.47
2023-02-02T10:32:15.903Z,1014.44
2023-02-02T10:33:15.950Z,1014.47
2023-02-02T10:34:15.935Z,1014.44
2023-02-02T10:35:15.985Z,1014.48
2023-02-02T10:36:16.029Z,1014.46
2023-02-02T10:37:15.900Z,1014.44
2023-02-02T10:38:15.851Z,1014.42
2023-02-02T10:39:15.851Z,1014.46
2023-02-02T10:40:15.858Z,1014.42
2023-02-02T10:41:15.832Z,1014.41
2023-02-02T10:42:15.911Z,1014.42
2023-02-02T10:43:15.790Z,1014.45
2023-02-02T10:44:15.848Z,1014.46
2023-02-02T10:45:15.805Z,1014.37
2023-02-02T10:46:15.794Z,1014.38
2023-02-02T10:47:15.759Z,1014.37
2023-02-02T10:48:15.798Z,1014.42
2023-02-02T10:49:15.762Z,1014.32
2023-02-02T10:50:15.713Z,1014.27
2023-02-02T10:51:15.847Z,1014.38
2023-02-02T10:52:15.867Z,1014.30
2023-02-02T10:53:15.730Z,1014.36
2023-02-02T10:54:15.714Z,1014.31
2023-02-02T10:55:15.713Z,1014.30
2023-02-02T10:56:15.733Z,1014.32
2023-02-02T10:57:15.779Z,1014.32
2023-02-02T10:58:15.716Z,1014.34
2023-02-02T10:59:15.641Z,1014.25
2023-02-02T11:00:15.647Z,1014.24
2023-02-02T11:01:15.684Z,1014.30
2023-02-02T11:02:21.175Z,1014.22
2023-02-02T11:03:15.632Z,1014.24
2023-02-02T11:04:15.640Z,1014.17
2023-02-02T11:05:15.620Z,1014.21
2023-02-02T11:06:15.556Z,1014.22
2023-02-02T11:07:15.663Z,1014.24
2023-02-02T11:08:15.582Z,1014.25
2023-02-02T11:09:15.588Z,1014.23
2023-02-02T11:10:15.637Z,1014.25
2023-02-02T11:11:15.519Z,1014.23
2023-02-02T11:12:15.521Z,1014.23
2023-02-02T11:13:15.646Z,1014.31
2023-02-02T11:14:15.553Z,1014.22
2023-02-02T11:15:15.507Z,1014.25
2023-02-02T11:16:15.546Z,1014.25
2023-02-02T11:17:15.483Z,1014.22
2023-02-02T11:18:15.509Z,1014.25
2023-02-02T11:19:15.542Z,1014.26
2023-02-02T11:20:15.562Z,1014.34
2023-02-02T11:21:15.430Z,1014.39
2023-02-02T11:22:15.407Z,1014.32
2023-02-02T11:23:15.390Z,1014.29
2023-02-02T11:24:15.459Z,1014.27
2023-02-02T11:25:15.376Z,1014.30
2023-02-02T11:26:15.565Z,1014.34
2023-02-02T11:27:15.353Z,1014.33
2023-02-02T11:28:15.360Z,1014.34
2023-02-02T11:29:15.335Z,1014.35
2023-02-02T11:30:15.424Z,1014.35
2023-02-02T11:31:15.469Z,1014.36
2023-02-02T11:32:15.322Z,1014.39
2023-02-02T11:33:15.288Z,1014.42
2023-02-02T11:34:15.306Z,1014.36
2023-02-02T11:35:15.339Z,1014.36
2023-02-02T11:36:15.269Z,1014.40
2023-02-02T11:37:15.258Z,1014.41
2023-02-02T11:38:15.268Z,1014.40
2023-02-02T11:39:15.256Z,1014.44
2023-02-02T11:40:15.246Z,1014.37
2023-02-02T11:41:15.218Z,1014.38
2023-02-02T11:42:15.259Z,1014.42
2023-02-02T11:43:15.220Z,1014.46
2023-02-02T11:44:15.244Z,1014.39
2023-02-02T11:45:15.177Z,1014.38
2023-02-02T11:46:15.248Z,1014.37
2023-02-02T11:47:15.187Z,1014.42
2023-02-02T11:48:15.162Z,1014.36
2023-02-02T11:49:15.145Z,1014.36
2023-02-02T11:50:15.181Z,1014.34
2023-02-02T11:51:15.292Z,1014.32
2023-02-02T11:52:17.928Z,1014.34
2023-02-02T11:53:15.155Z,1014.31
2023-02-02T11:54:15.150Z,1014.38
2023-02-02T11:55:15.110Z,1014.37
2023-02-02T11:56:15.128Z,1014.36
2023-02-02T11:57:15.050Z,1014.37
2023-02-02T11:58:15.105Z,1014.33
2023-02-02T11:59:15.034Z,1014.35
2023-02-02T12:00:15.097Z,1014.41
2023-02-02T12:01:15.113Z,1014.44
2023-02-02T12:02:15.041Z,1014.41
2023-02-02T12:03:15.007Z,1014.39
2023-02-02T12:04:15.133Z,1014.40
2023-02-02T12:05:15.011Z,1014.42